Estación Meteorológica Peña el Pijo (Robertgarden) [ 11/16/18 14:20:00 CET ]

Fecha Hora Presion(HPa) Temp (°C) Humedad % Rocio (°C) Viento ( m/s) Direccion Lluvia 1Hora(mm) Lluvia 24H(mm) LLuvia Total(mm)
2018-Sep-09 01:01:44 1012.100 11.8 89 10.0       19.68 343.95
2018-Sep-09 02:01:58 1012.100 11.0 90 9.4       19.68 343.95
2018-Sep-09 03:01:42 1012.700 10.6 90 9.0       19.68 343.95
2018-Sep-09 04:01:41 1012.900 10.8 91 9.4       19.68 343.95
2018-Sep-09 05:01:41 1012.400 10.4 90 8.8       19.68 343.95
2018-Sep-09 06:01:39 1011.900 10.3 90 8.7       19.68 343.95
2018-Sep-09 07:01:46 1011.700 10.2 91 8.8       19.68 343.95
2018-Sep-09 08:01:43 1011.800 10.5 91 9.1       15.54 343.95
2018-Sep-09 09:01:45 1012.400 11.8 92 10.5       10.36 343.95
2018-Sep-09 10:02:07 1012.700 14.2 93 13.1       5.18 343.95
2018-Sep-09 11:01:46 1013.000 17.1 90 15.5       5.18 343.95
2018-Sep-09 12:02:02 1013.000 19.3 85 16.7       5.18 343.95
2018-Sep-09 13:01:51 1012.600 20.4 76 16.0       5.18 343.95
2018-Sep-09 14:01:45 1012.800 18.6 75 14.1       3.62 343.95
2018-Sep-09 15:01:42 1012.200 18.9 76 14.6       3.10 343.95
2018-Sep-09 16:01:57 1012.100 19.8 75 15.2       2.59 343.95
2018-Sep-09 17:01:56 1011.500 18.9 77 14.8       2.59 343.95
2018-Sep-09 18:02:03 1011.400 19.2 78 15.3       1.55 343.95
2018-Sep-09 19:01:55 1011.200 18.6 79 14.9       1.03 343.95
2018-Sep-09 20:01:41 1011.700 17.9 81 14.6       0.51 343.95
2018-Sep-09 21:01:50 1012.200 16.9 84 14.2       0.51 343.95
2018-Sep-09 22:01:54 1012.600 15.8 85 13.3         343.95
2018-Sep-09 23:01:41 1013.200 15.3 87 13.2         343.95

Temperatura Máxima:20°    Temperatura Mínima:10°
Presión Máxima:1013.200 Hpa    Presión Mínima:1011.200 Hpa


Volver